sensor_id;sensor_type;location;lat;lon;timestamp;pressure;altitude;pressure_sealevel;temperature;humidity
27429;BME280;14881;48.092;11.574;2023-09-19T00:00:20;95194.56;;;15.61;100.00
27429;BME280;14881;48.092;11.574;2023-09-19T00:02:52;95194.56;;;15.61;100.00
27429;BME280;14881;48.092;11.574;2023-09-19T00:05:19;95191.50;;;15.62;100.00
27429;BME280;14881;48.092;11.574;2023-09-19T00:07:50;95185.84;;;15.68;100.00
27429;BME280;14881;48.092;11.574;2023-09-19T00:10:17;95185.38;;;15.65;100.00
27429;BME280;14881;48.092;11.574;2023-09-19T00:12:45;95179.75;;;15.62;100.00
27429;BME280;14881;48.092;11.574;2023-09-19T00:15:11;95182.47;;;15.62;100.00
27429;BME280;14881;48.092;11.574;2023-09-19T00:17:38;95179.75;;;15.62;100.00
27429;BME280;14881;48.092;11.574;2023-09-19T00:20:07;95185.09;;;15.58;100.00
27429;BME280;14881;48.092;11.574;2023-09-19T00:22:39;95196.06;;;15.58;100.00
27429;BME280;14881;48.092;11.574;2023-09-19T00:25:07;95191.53;;;15.54;100.00
27429;BME280;14881;48.092;11.574;2023-09-19T00:27:34;95198.59;;;15.55;100.00
27429;BME280;14881;48.092;11.574;2023-09-19T00:30:00;95197.50;;;15.56;100.00
27429;BME280;14881;48.092;11.574;2023-09-19T00:32:27;95198.44;;;15.51;100.00
27429;BME280;14881;48.092;11.574;2023-09-19T00:34:57;95209.41;;;15.51;100.00
27429;BME280;14881;48.092;11.574;2023-09-19T00:37:24;95201.66;;;15.53;100.00
27429;BME280;14881;48.092;11.574;2023-09-19T00:39:51;95206.53;;;15.56;100.00
27429;BME280;14881;48.092;11.574;2023-09-19T00:42:18;95213.13;;;15.55;100.00
27429;BME280;14881;48.092;11.574;2023-09-19T00:44:47;95202.19;;;15.55;100.00
27429;BME280;14881;48.092;11.574;2023-09-19T00:47:13;95200.06;;;15.52;100.00
27429;BME280;14881;48.092;11.574;2023-09-19T00:49:44;95198.44;;;15.51;100.00
27429;BME280;14881;48.092;11.574;2023-09-19T00:52:11;95202.00;;;15.52;100.00
27429;BME280;14881;48.092;11.574;2023-09-19T00:54:39;95216.16;;;15.54;100.00
27429;BME280;14881;48.092;11.574;2023-09-19T00:57:05;95211.00;;;15.52;100.00
27429;BME280;14881;48.092;11.574;2023-09-19T00:59:33;95207.78;;;15.50;100.00
27429;BME280;14881;48.092;11.574;2023-09-19T01:02:02;95211.81;;;15.53;100.00
27429;BME280;14881;48.092;11.574;2023-09-19T01:04:30;95204.91;;;15.55;100.00
27429;BME280;14881;48.092;11.574;2023-09-19T01:06:57;95201.84;;;15.57;100.00
27429;BME280;14881;48.092;11.574;2023-09-19T01:09:24;95210.88;;;15.57;100.00
27429;BME280;14881;48.092;11.574;2023-09-19T01:11:53;95217.75;;;15.63;100.00
27429;BME280;14881;48.092;11.574;2023-09-19T01:14:31;95216.31;;;15.66;100.00
27429;BME280;14881;48.092;11.574;2023-09-19T01:17:15;95220.66;;;15.67;100.00
27429;BME280;14881;48.092;11.574;2023-09-19T01:20:09;95223.22;;;15.72;100.00
27429;BME280;14881;48.092;11.574;2023-09-19T01:22:48;95225.16;;;15.72;100.00
27429;BME280;14881;48.092;11.574;2023-09-19T01:25:34;95220.16;;;15.74;100.00
27429;BME280;14881;48.092;11.574;2023-09-19T01:28:20;95222.19;;;15.77;100.00
27429;BME280;14881;48.092;11.574;2023-09-19T01:30:52;95223.47;;;15.79;100.00
27429;BME280;14881;48.092;11.574;2023-09-19T01:33:23;95231.06;;;15.82;100.00
27429;BME280;14881;48.092;11.574;2023-09-19T01:35:50;95241.53;;;15.80;100.00
27429;BME280;14881;48.092;11.574;2023-09-19T01:38:16;95240.56;;;15.85;100.00
27429;BME280;14881;48.092;11.574;2023-09-19T01:40:48;95250.56;;;15.81;100.00
27429;BME280;14881;48.092;11.574;2023-09-19T01:43:21;95257.66;;;15.82;100.00
27429;BME280;14881;48.092;11.574;2023-09-19T01:45:59;95266.19;;;15.80;100.00
27429;BME280;14881;48.092;11.574;2023-09-19T01:48:37;95258.63;;;15.77;100.00
27429;BME280;14881;48.092;11.574;2023-09-19T01:51:06;95262.50;;;15.76;100.00
27429;BME280;14881;48.092;11.574;2023-09-19T01:53:36;95275.88;;;15.78;100.00
27429;BME280;14881;48.092;11.574;2023-09-19T01:56:11;95267.97;;;15.76;100.00
27429;BME280;14881;48.092;11.574;2023-09-19T01:58:42;95266.84;;;15.77;100.00
27429;BME280;14881;48.092;11.574;2023-09-19T02:01:16;95262.84;;;15.75;100.00
27429;BME280;14881;48.092;11.574;2023-09-19T02:03:46;95259.75;;;15.76;100.00
27429;BME280;14881;48.092;11.574;2023-09-19T02:06:14;95255.28;;;15.72;100.00
27429;BME280;14881;48.092;11.574;2023-09-19T02:08:41;95264.31;;;15.72;100.00
27429;BME280;14881;48.092;11.574;2023-09-19T02:11:07;95263.34;;;15.68;100.00
27429;BME280;14881;48.092;11.574;2023-09-19T02:13:34;95261.25;;;15.65;100.00
27429;BME280;14881;48.092;11.574;2023-09-19T02:16:00;95262.91;;;15.57;100.00
27429;BME280;14881;48.092;11.574;2023-09-19T02:18:30;95264.00;;;15.48;100.00
27429;BME280;14881;48.092;11.574;2023-09-19T02:20:57;95259.38;;;15.40;100.00
27429;BME280;14881;48.092;11.574;2023-09-19T02:23:24;95260.50;;;15.30;100.00
27429;BME280;14881;48.092;11.574;2023-09-19T02:25:52;95271.31;;;15.26;100.00
27429;BME280;14881;48.092;11.574;2023-09-19T02:28:19;95264.06;;;15.30;100.00
27429;BME280;14881;48.092;11.574;2023-09-19T02:30:47;95271.47;;;15.30;100.00
27429;BME280;14881;48.092;11.574;2023-09-19T02:33:14;95271.63;;;15.25;100.00
27429;BME280;14881;48.092;11.574;2023-09-19T02:35:41;95277.44;;;15.23;100.00
27429;BME280;14881;48.092;11.574;2023-09-19T02:38:08;95287.44;;;15.19;100.00
27429;BME280;14881;48.092;11.574;2023-09-19T02:40:37;95285.34;;;15.16;100.00
27429;BME280;14881;48.092;11.574;2023-09-19T02:43:04;95276.00;;;15.09;100.00
27429;BME280;14881;48.092;11.574;2023-09-19T02:45:31;95271.84;;;15.03;100.00
27429;BME280;14881;48.092;11.574;2023-09-19T02:47:58;95286.97;;;15.00;100.00
27429;BME280;14881;48.092;11.574;2023-09-19T02:50:24;95282.47;;;15.04;100.00
27429;BME280;14881;48.092;11.574;2023-09-19T02:52:51;95288.25;;;15.03;100.00
27429;BME280;14881;48.092;11.574;2023-09-19T02:55:19;95288.75;;;15.05;100.00
27429;BME280;14881;48.092;11.574;2023-09-19T02:57:46;95293.25;;;15.01;100.00
27429;BME280;14881;48.092;11.574;2023-09-19T03:00:13;95286.94;;;15.09;100.00
27429;BME280;14881;48.092;11.574;2023-09-19T03:02:40;95282.13;;;15.06;100.00
27429;BME280;14881;48.092;11.574;2023-09-19T03:05:07;95277.94;;;15.08;100.00
27429;BME280;14881;48.092;11.574;2023-09-19T03:07:34;95277.94;;;15.17;100.00
27429;BME280;14881;48.092;11.574;2023-09-19T03:10:01;95276.97;;;15.21;100.00
27429;BME280;14881;48.092;11.574;2023-09-19T03:12:28;95267.91;;;15.29;100.00
27429;BME280;14881;48.092;11.574;2023-09-19T03:14:54;95259.69;;;15.38;100.00
27429;BME280;14881;48.092;11.574;2023-09-19T03:17:21;95266.59;;;15.44;100.00
27429;BME280;14881;48.092;11.574;2023-09-19T03:19:47;95261.09;;;15.53;100.00
27429;BME280;14881;48.092;11.574;2023-09-19T03:22:14;95258.84;;;15.55;100.00
27429;BME280;14881;48.092;11.574;2023-09-19T03:24:41;95265.13;;;15.64;100.00
27429;BME280;14881;48.092;11.574;2023-09-19T03:27:10;95264.94;;;15.69;100.00
27429;BME280;14881;48.092;11.574;2023-09-19T03:29:36;95260.28;;;15.70;100.00
27429;BME280;14881;48.092;11.574;2023-09-19T03:32:04;95260.13;;;15.66;100.00
27429;BME280;14881;48.092;11.574;2023-09-19T03:34:31;95256.91;;;15.64;100.00
27429;BME280;14881;48.092;11.574;2023-09-19T03:36:57;95258.50;;;15.65;100.00
27429;BME280;14881;48.092;11.574;2023-09-19T03:39:24;95274.13;;;15.64;100.00
27429;BME280;14881;48.092;11.574;2023-09-19T03:41:50;95274.94;;;15.65;100.00
27429;BME280;14881;48.092;11.574;2023-09-19T03:44:17;95277.22;;;15.63;100.00
27429;BME280;14881;48.092;11.574;2023-09-19T03:46:44;95278.81;;;15.64;100.00
27429;BME280;14881;48.092;11.574;2023-09-19T03:49:10;95278.53;;;15.57;100.00
27429;BME280;14881;48.092;11.574;2023-09-19T03:51:37;95274.47;;;15.54;100.00
27429;BME280;14881;48.092;11.574;2023-09-19T03:54:03;95281.72;;;15.50;100.00
27429;BME280;14881;48.092;11.574;2023-09-19T03:56:30;95286.25;;;15.55;100.00
27429;BME280;14881;48.092;11.574;2023-09-19T03:58:57;95284.13;;;15.60;100.00
27429;BME280;14881;48.092;11.574;2023-09-19T04:01:24;95277.53;;;15.61;100.00
27429;BME280;14881;48.092;11.574;2023-09-19T04:03:50;95284.78;;;15.66;100.00
27429;BME280;14881;48.092;11.574;2023-09-19T04:06:19;95280.41;;;15.65;100.00
27429;BME280;14881;48.092;11.574;2023-09-19T04:08:45;95279.28;;;15.66;100.00
27429;BME280;14881;48.092;11.574;2023-09-19T04:11:13;95282.50;;;15.68;100.00
27429;BME280;14881;48.092;11.574;2023-09-19T04:13:39;95285.09;;;15.64;100.00
27429;BME280;14881;48.092;11.574;2023-09-19T04:16:06;95289.44;;;15.65;100.00
27429;BME280;14881;48.092;11.574;2023-09-19T04:18:33;95286.22;;;15.72;100.00
27429;BME280;14881;48.092;11.574;2023-09-19T04:21:03;95282.16;;;15.78;100.00
27429;BME280;14881;48.092;11.574;2023-09-19T04:23:31;95290.66;;;15.85;100.00
27429;BME280;14881;48.092;11.574;2023-09-19T04:25:57;95289.53;;;15.86;100.00
27429;BME280;14881;48.092;11.574;2023-09-19T04:28:24;95293.38;;;15.94;100.00
27429;BME280;14881;48.092;11.574;2023-09-19T04:30:50;95288.84;;;15.98;100.00
27429;BME280;14881;48.092;11.574;2023-09-19T04:33:17;95292.84;;;16.09;100.00
27429;BME280;14881;48.092;11.574;2023-09-19T04:35:44;95289.28;;;16.09;100.00
27429;BME280;14881;48.092;11.574;2023-09-19T04:38:10;95301.56;;;16.02;100.00
27429;BME280;14881;48.092;11.574;2023-09-19T04:40:37;95301.06;;;16.09;100.00
27429;BME280;14881;48.092;11.574;2023-09-19T04:43:05;95300.72;;;16.11;100.00
27429;BME280;14881;48.092;11.574;2023-09-19T04:45:33;95291.72;;;16.10;100.00
27429;BME280;14881;48.092;11.574;2023-09-19T04:48:00;95304.94;;;16.08;100.00
27429;BME280;14881;48.092;11.574;2023-09-19T04:50:26;95307.84;;;16.03;100.00
27429;BME280;14881;48.092;11.574;2023-09-19T04:52:54;95302.53;;;16.07;100.00
27429;BME280;14881;48.092;11.574;2023-09-19T04:55:20;95308.00;;;16.07;100.00
27429;BME280;14881;48.092;11.574;2023-09-19T04:57:48;95321.56;;;16.03;100.00
27429;BME280;14881;48.092;11.574;2023-09-19T05:00:16;95321.22;;;16.05;100.00
27429;BME280;14881;48.092;11.574;2023-09-19T05:02:48;95322.03;;;16.05;100.00
27429;BME280;14881;48.092;11.574;2023-09-19T05:05:15;95322.50;;;16.07;100.00
27429;BME280;14881;48.092;11.574;2023-09-19T05:07:45;95337.63;;;16.13;100.00
27429;BME280;14881;48.092;11.574;2023-09-19T05:10:12;95334.88;;;16.13;100.00
27429;BME280;14881;48.092;11.574;2023-09-19T05:12:39;95336.81;;;16.13;100.00
27429;BME280;14881;48.092;11.574;2023-09-19T05:15:07;95340.53;;;16.17;100.00
27429;BME280;14881;48.092;11.574;2023-09-19T05:17:34;95342.78;;;16.15;100.00
27429;BME280;14881;48.092;11.574;2023-09-19T05:20:00;95347.75;;;16.21;100.00
27429;BME280;14881;48.092;11.574;2023-09-19T05:22:41;95348.03;;;16.28;100.00
27429;BME280;14881;48.092;11.574;2023-09-19T05:25:08;95348.84;;;16.29;100.00
27429;BME280;14881;48.092;11.574;2023-09-19T05:27:36;95355.13;;;16.29;100.00
27429;BME280;14881;48.092;11.574;2023-09-19T05:30:03;95354.94;;;16.34;100.00
27429;BME280;14881;48.092;11.574;2023-09-19T05:32:30;95360.13;;;16.36;100.00
27429;BME280;14881;48.092;11.574;2023-09-19T05:34:57;95363.19;;;16.34;100.00
27429;BME280;14881;48.092;11.574;2023-09-19T05:37:23;95356.88;;;16.34;100.00
27429;BME280;14881;48.092;11.574;2023-09-19T05:39:52;95366.72;;;16.35;100.00
27429;BME280;14881;48.092;11.574;2023-09-19T05:42:19;95367.72;;;16.30;100.00
27429;BME280;14881;48.092;11.574;2023-09-19T05:44:46;95364.97;;;16.30;100.00
27429;BME280;14881;48.092;11.574;2023-09-19T05:47:13;95376.78;;;16.22;100.00
27429;BME280;14881;48.092;11.574;2023-09-19T05:49:39;95370.03;;;16.20;100.00
27429;BME280;14881;48.092;11.574;2023-09-19T05:52:08;95370.03;;;16.20;100.00
27429;BME280;14881;48.092;11.574;2023-09-19T05:54:34;95378.41;;;16.15;100.00
27429;BME280;14881;48.092;11.574;2023-09-19T05:57:01;95382.75;;;16.16;100.00
27429;BME280;14881;48.092;11.574;2023-09-19T05:59:27;95381.78;;;16.20;100.00
27429;BME280;14881;48.092;11.574;2023-09-19T06:01:55;95386.09;;;16.30;100.00
27429;BME280;14881;48.092;11.574;2023-09-19T06:04:21;95377.47;;;16.49;100.00
27429;BME280;14881;48.092;11.574;2023-09-19T06:06:48;95377.06;;;16.67;100.00
27429;BME280;14881;48.092;11.574;2023-09-19T06:09:15;95375.59;;;16.79;100.00
27429;BME280;14881;48.092;11.574;2023-09-19T06:11:42;95374.84;;;16.90;100.00
27429;BME280;14881;48.092;11.574;2023-09-19T06:14:08;95373.06;;;16.94;100.00
27429;BME280;14881;48.092;11.574;2023-09-19T06:16:36;95368.63;;;17.02;100.00
27429;BME280;14881;48.092;11.574;2023-09-19T06:19:04;95381.22;;;17.03;100.00
27429;BME280;14881;48.092;11.574;2023-09-19T06:21:32;95381.84;;;17.09;100.00
27429;BME280;14881;48.092;11.574;2023-09-19T06:23:59;95382.78;;;17.13;100.00
27429;BME280;14881;48.092;11.574;2023-09-19T06:26:26;95389.00;;;17.22;100.00
27429;BME280;14881;48.092;11.574;2023-09-19T06:28:53;95390.28;;;17.24;100.00
27429;BME280;14881;48.092;11.574;2023-09-19T06:31:21;95385.25;;;17.26;100.00
27429;BME280;14881;48.092;11.574;2023-09-19T06:33:52;95391.47;;;17.35;100.00
27429;BME280;14881;48.092;11.574;2023-09-19T06:36:19;95377.75;;;17.35;100.00
27429;BME280;14881;48.092;11.574;2023-09-19T06:38:45;95380.16;;;17.37;100.00
27429;BME280;14881;48.092;11.574;2023-09-19T06:41:12;95388.88;;;17.39;100.00
27429;BME280;14881;48.092;11.574;2023-09-19T06:43:39;95403.22;;;17.45;100.00
27429;BME280;14881;48.092;11.574;2023-09-19T06:46:05;95396.69;;;17.49;100.00
27429;BME280;14881;48.092;11.574;2023-09-19T06:48:33;95394.75;;;17.50;100.00
27429;BME280;14881;48.092;11.574;2023-09-19T06:50:59;95397.84;;;17.48;100.00
27429;BME280;14881;48.092;11.574;2023-09-19T06:53:31;95403.78;;;17.50;100.00
27429;BME280;14881;48.092;11.574;2023-09-19T06:55:57;95404.50;;;17.47;100.00
27429;BME280;14881;48.092;11.574;2023-09-19T06:58:24;95400.94;;;17.47;100.00
27429;BME280;14881;48.092;11.574;2023-09-19T07:00:50;95409.91;;;17.56;100.00
27429;BME280;14881;48.092;11.574;2023-09-19T07:03:16;95411.47;;;17.65;100.00
27429;BME280;14881;48.092;11.574;2023-09-19T07:05:44;95412.19;;;17.74;100.00
27429;BME280;14881;48.092;11.574;2023-09-19T07:08:13;95412.53;;;17.73;100.00
27429;BME280;14881;48.092;11.574;2023-09-19T07:10:41;95431.28;;;17.71;100.00
27429;BME280;14881;48.092;11.574;2023-09-19T07:13:15;95425.72;;;17.59;100.00
27429;BME280;14881;48.092;11.574;2023-09-19T07:15:43;95426.50;;;17.59;100.00
27429;BME280;14881;48.092;11.574;2023-09-19T07:18:13;95430.72;;;17.57;100.00
27429;BME280;14881;48.092;11.574;2023-09-19T07:20:40;95436.19;;;17.65;100.00
27429;BME280;14881;48.092;11.574;2023-09-19T07:23:15;95432.91;;;17.72;100.00
27429;BME280;14881;48.092;11.574;2023-09-19T07:25:42;95430.75;;;17.78;100.00
27429;BME280;14881;48.092;11.574;2023-09-19T07:28:08;95432.91;;;17.72;100.00
27429;BME280;14881;48.092;11.574;2023-09-19T07:30:36;95433.22;;;17.70;100.00
27429;BME280;14881;48.092;11.574;2023-09-19T07:33:03;95433.97;;;17.80;100.00
27429;BME280;14881;48.092;11.574;2023-09-19T07:35:31;95434.69;;;17.89;100.00
27429;BME280;14881;48.092;11.574;2023-09-19T07:37:57;95426.94;;;18.03;100.00
27429;BME280;14881;48.092;11.574;2023-09-19T07:40:27;95430.88;;;18.14;100.00
27429;BME280;14881;48.092;11.574;2023-09-19T07:42:55;95422.53;;;18.23;100.00
27429;BME280;14881;48.092;11.574;2023-09-19T07:45:22;95426.88;;;18.24;100.00
27429;BME280;14881;48.092;11.574;2023-09-19T07:47:50;95433.00;;;18.29;100.00
27429;BME280;14881;48.092;11.574;2023-09-19T07:50:17;95431.16;;;18.33;100.00
27429;BME280;14881;48.092;11.574;2023-09-19T07:52:44;95426.34;;;18.42;100.00
27429;BME280;14881;48.092;11.574;2023-09-19T07:55:11;95425.00;;;18.49;100.00
27429;BME280;14881;48.092;11.574;2023-09-19T07:57:42;95426.16;;;18.48;100.00
27429;BME280;14881;48.092;11.574;2023-09-19T08:00:10;95426.03;;;18.44;100.00
27429;BME280;14881;48.092;11.574;2023-09-19T08:02:37;95431.88;;;18.42;100.00
27429;BME280;14881;48.092;11.574;2023-09-19T08:05:04;95429.28;;;18.70;100.00
27429;BME280;14881;48.092;11.574;2023-09-19T08:07:32;95434.25;;;19.01;100.00
27429;BME280;14881;48.092;11.574;2023-09-19T08:09:59;95430.63;;;19.25;100.00
27429;BME280;14881;48.092;11.574;2023-09-19T08:12:25;95428.00;;;19.29;100.00
27429;BME280;14881;48.092;11.574;2023-09-19T08:14:52;95430.88;;;19.32;100.00
27429;BME280;14881;48.092;11.574;2023-09-19T08:17:19;95427.88;;;19.37;100.00
27429;BME280;14881;48.092;11.574;2023-09-19T08:19:45;95429.50;;;19.38;100.00
27429;BME280;14881;48.092;11.574;2023-09-19T08:22:12;95426.63;;;19.35;100.00
27429;BME280;14881;48.092;11.574;2023-09-19T08:24:38;95432.78;;;19.68;100.00
27429;BME280;14881;48.092;11.574;2023-09-19T08:27:05;95426.84;;;19.82;100.00
27429;BME280;14881;48.092;11.574;2023-09-19T08:29:34;95421.69;;;19.80;100.00
27429;BME280;14881;48.092;11.574;2023-09-19T08:32:01;95425.75;;;19.71;100.00
27429;BME280;14881;48.092;11.574;2023-09-19T08:34:28;95425.69;;;19.55;100.00
27429;BME280;14881;48.092;11.574;2023-09-19T08:36:58;95426.84;;;19.54;100.00
27429;BME280;14881;48.092;11.574;2023-09-19T08:39:25;95438.53;;;19.63;100.00
27429;BME280;14881;48.092;11.574;2023-09-19T08:41:57;95430.81;;;19.69;100.00
27429;BME280;14881;48.092;11.574;2023-09-19T08:44:23;95430.94;;;19.72;100.00
27429;BME280;14881;48.092;11.574;2023-09-19T08:46:54;95432.06;;;19.71;100.00
27429;BME280;14881;48.092;11.574;2023-09-19T08:49:27;95432.16;;;19.75;100.00
27429;BME280;14881;48.092;11.574;2023-09-19T08:52:03;95429.91;;;19.93;100.00
27429;BME280;14881;48.092;11.574;2023-09-19T08:54:35;95431.22;;;20.11;100.00
27429;BME280;14881;48.092;11.574;2023-09-19T08:57:07;95432.38;;;20.38;100.00
27429;BME280;14881;48.092;11.574;2023-09-19T08:59:37;95432.38;;;20.38;100.00
27429;BME280;14881;48.092;11.574;2023-09-19T09:02:10;95426.88;;;20.54;100.00
27429;BME280;14881;48.092;11.574;2023-09-19T09:04:39;95426.84;;;21.01;100.00
27429;BME280;14881;48.092;11.574;2023-09-19T09:07:10;95424.44;;;21.31;100.00
27429;BME280;14881;48.092;11.574;2023-09-19T09:09:37;95430.66;;;21.43;100.00
27429;BME280;14881;48.092;11.574;2023-09-19T09:12:09;95423.56;;;21.11;100.00
27429;BME280;14881;48.092;11.574;2023-09-19T09:14:38;95436.16;;;20.93;100.00
27429;BME280;14881;48.092;11.574;2023-09-19T09:17:04;95454.94;;;20.87;100.00
27429;BME280;14881;48.092;11.574;2023-09-19T09:19:31;95436.31;;;20.68;100.00
27429;BME280;14881;48.092;11.574;2023-09-19T09:22:07;95446.00;;;20.46;100.00
27429;BME280;14881;48.092;11.574;2023-09-19T09:24:33;95452.19;;;20.00;100.00
27429;BME280;14881;48.092;11.574;2023-09-19T09:27:04;95450.66;;;19.74;100.00
27429;BME280;14881;48.092;11.574;2023-09-19T09:29:43;95453.22;;;19.67;100.00
27429;BME280;14881;48.092;11.574;2023-09-19T09:32:20;95447.59;;;19.92;100.00
27429;BME280;14881;48.092;11.574;2023-09-19T09:34:49;95440.44;;;20.31;100.00
27429;BME280;14881;48.092;11.574;2023-09-19T09:37:16;95436.31;;;20.68;100.00
27429;BME280;14881;48.092;11.574;2023-09-19T09:39:52;95431.75;;;21.07;100.00
27429;BME280;14881;48.092;11.574;2023-09-19T09:42:30;95431.84;;;21.11;100.00
27429;BME280;14881;48.092;11.574;2023-09-19T09:45:13;95420.44;;;20.97;100.00
27429;BME280;14881;48.092;11.574;2023-09-19T09:47:44;95420.00;;;21.10;100.00
27429;BME280;14881;48.092;11.574;2023-09-19T09:50:28;95430.25;;;21.10;100.00
27429;BME280;14881;48.092;11.574;2023-09-19T09:53:03;95435.94;;;21.33;100.00
27429;BME280;14881;48.092;11.574;2023-09-19T09:55:57;95428.91;;;21.54;100.00
27429;BME280;14881;48.092;11.574;2023-09-19T09:58:25;95433.63;;;21.19;100.00
27429;BME280;14881;48.092;11.574;2023-09-19T10:00:55;95440.94;;;20.80;100.00
27429;BME280;14881;48.092;11.574;2023-09-19T10:03:34;95447.34;;;20.53;100.00
27429;BME280;14881;48.092;11.574;2023-09-19T10:06:07;95443.34;;;20.66;100.00
27429;BME280;14881;48.092;11.574;2023-09-19T10:09:05;95433.44;;;21.43;100.00
27429;BME280;14881;48.092;11.574;2023-09-19T10:11:41;95429.00;;;22.12;100.00
27429;BME280;14881;48.092;11.574;2023-09-19T10:14:11;95432.25;;;22.60;100.00
27429;BME280;14881;48.092;11.574;2023-09-19T10:16:45;95433.25;;;22.48;100.00
27429;BME280;14881;48.092;11.574;2023-09-19T10:19:16;95441.13;;;21.88;100.00
27429;BME280;14881;48.092;11.574;2023-09-19T10:21:49;95446.09;;;21.44;100.00
27429;BME280;14881;48.092;11.574;2023-09-19T10:24:17;95441.34;;;21.80;100.00
27429;BME280;14881;48.092;11.574;2023-09-19T10:26:45;95437.91;;;22.44;100.00
27429;BME280;14881;48.092;11.574;2023-09-19T10:29:13;95425.50;;;23.03;100.00
27429;BME280;14881;48.092;11.574;2023-09-19T10:31:42;95432.06;;;23.44;100.00
27429;BME280;14881;48.092;11.574;2023-09-19T10:34:14;95424.03;;;23.62;100.00
27429;BME280;14881;48.092;11.574;2023-09-19T10:36:44;95431.59;;;23.12;100.00
27429;BME280;14881;48.092;11.574;2023-09-19T10:39:11;95434.03;;;23.44;100.00
27429;BME280;14881;48.092;11.574;2023-09-19T10:41:40;95422.69;;;23.79;100.00
27429;BME280;14881;48.092;11.574;2023-09-19T10:44:06;95436.78;;;23.67;100.00
27429;BME280;14881;48.092;11.574;2023-09-19T10:46:34;95434.09;;;23.21;100.00
27429;BME280;14881;48.092;11.574;2023-09-19T10:49:02;95439.13;;;22.89;100.00
27429;BME280;14881;48.092;11.574;2023-09-19T10:51:31;95440.53;;;22.79;100.00
27429;BME280;14881;48.092;11.574;2023-09-19T10:54:04;95433.41;;;22.17;100.00
27429;BME280;14881;48.092;11.574;2023-09-19T10:56:33;95438.09;;;22.55;100.00
27429;BME280;14881;48.092;11.574;2023-09-19T10:59:07;95442.81;;;22.54;100.00
27429;BME280;14881;48.092;11.574;2023-09-19T11:01:42;95427.44;;;22.99;100.00
27429;BME280;14881;48.092;11.574;2023-09-19T11:04:23;95434.16;;;23.51;100.00
27429;BME280;14881;48.092;11.574;2023-09-19T11:07:00;95433.09;;;23.85;100.00
27429;BME280;14881;48.092;11.574;2023-09-19T11:09:43;95424.03;;;23.92;100.00
27429;BME280;14881;48.092;11.574;2023-09-19T11:12:12;95426.63;;;23.78;100.00
27429;BME280;14881;48.092;11.574;2023-09-19T11:14:40;95423.06;;;23.77;100.00
27429;BME280;14881;48.092;11.574;2023-09-19T11:17:40;95430.13;;;24.35;100.00
27429;BME280;14881;48.092;11.574;2023-09-19T11:20:26;95435.81;;;24.45;100.00
27429;BME280;14881;48.092;11.574;2023-09-19T11:23:22;95434.06;;;24.67;100.00
27429;BME280;14881;48.092;11.574;2023-09-19T11:25:53;95418.66;;;24.77;100.00
27429;BME280;14881;48.092;11.574;2023-09-19T11:28:33;95417.47;;;24.74;100.00
27429;BME280;14881;48.092;11.574;2023-09-19T11:34:41;95422.69;;;24.83;100.00
27429;BME280;14881;48.092;11.574;2023-09-19T11:40:37;95417.53;;;25.29;100.00
27429;BME280;14881;48.092;11.574;2023-09-19T11:43:28;95415.06;;;25.72;100.00
27429;BME280;14881;48.092;11.574;2023-09-19T11:46:08;95413.13;;;25.79;100.00
27429;BME280;14881;48.092;11.574;2023-09-19T11:48:35;95420.56;;;25.64;100.00
27429;BME280;14881;48.092;11.574;2023-09-19T11:51:15;95414.28;;;25.75;100.00
27429;BME280;14881;48.092;11.574;2023-09-19T11:53:45;95413.50;;;25.78;100.00
27429;BME280;14881;48.092;11.574;2023-09-19T11:56:15;95425.56;;;25.41;100.00
27429;BME280;14881;48.092;11.574;2023-09-19T11:58:43;95428.78;;;24.55;100.00
27429;BME280;14881;48.092;11.574;2023-09-19T12:01:12;95426.63;;;23.25;100.00
27429;BME280;14881;48.092;11.574;2023-09-19T12:03:47;95432.31;;;22.83;100.00
27429;BME280;14881;48.092;11.574;2023-09-19T12:06:20;95435.59;;;22.27;100.00
27429;BME280;14881;48.092;11.574;2023-09-19T12:08:47;95427.50;;;22.18;100.00
27429;BME280;14881;48.092;11.574;2023-09-19T12:11:16;95423.88;;;22.34;100.00
27429;BME280;14881;48.092;11.574;2023-09-19T12:13:44;95420.56;;;22.47;100.00
27429;BME280;14881;48.092;11.574;2023-09-19T12:16:13;95427.25;;;22.46;100.00
27429;BME280;14881;48.092;11.574;2023-09-19T12:18:41;95414.69;;;22.52;100.00
27429;BME280;14881;48.092;11.574;2023-09-19T12:21:23;95414.97;;;22.89;100.00
27429;BME280;14881;48.092;11.574;2023-09-19T12:24:06;95417.72;;;23.39;100.00
27429;BME280;14881;48.092;11.574;2023-09-19T12:26:42;95409.53;;;23.72;100.00
27429;BME280;14881;48.092;11.574;2023-09-19T12:29:13;95415.91;;;24.06;100.00
27429;BME280;14881;48.092;11.574;2023-09-19T12:31:48;95417.56;;;24.14;100.00
27429;BME280;14881;48.092;11.574;2023-09-19T12:34:19;95417.28;;;23.89;100.00
27429;BME280;14881;48.092;11.574;2023-09-19T12:36:46;95413.75;;;23.36;100.00
27429;BME280;14881;48.092;11.574;2023-09-19T12:39:22;95411.22;;;23.27;100.00
27429;BME280;14881;48.092;11.574;2023-09-19T12:41:50;95413.25;;;23.31;100.00
27429;BME280;14881;48.092;11.574;2023-09-19T12:44:17;95402.03;;;23.23;100.00
27429;BME280;14881;48.092;11.574;2023-09-19T12:46:44;95410.22;;;23.13;100.00
27429;BME280;14881;48.092;11.574;2023-09-19T12:49:17;95403.41;;;22.84;100.00
27429;BME280;14881;48.092;11.574;2023-09-19T12:51:46;95404.72;;;23.16;100.00
27429;BME280;14881;48.092;11.574;2023-09-19T12:54:13;95410.19;;;23.39;100.00
27429;BME280;14881;48.092;11.574;2023-09-19T12:56:41;95393.19;;;23.67;100.00
27429;BME280;14881;48.092;11.574;2023-09-19T12:59:11;95388.97;;;23.50;100.00